Terminal Aerodrome Forecast
Issued by NWS

Home | Current Version | Previous Version | Text Only | Print | Product List | Glossary On
Versions: 1 2 3 4 5 6 7 8 9 10 11 12 13 14 15 16 17 18 19 20 21 22 23 24 25 26
000
FTUS44 KFWD 171200 AAA
TAFDAL
TAF AMD
KDAL 171257Z 1713/1812 12009KT P6SM SCT015
     FM171500 12006KT P6SM BKN015
     FM172100 10009KT P6SM VCSH BKN015
     FM180200 07006KT P6SM OVC012=

USA.gov is the U.S. government's official web portal to all federal, state and local government web resources and services.